createdAt,value
2023-04-12T00:01:27.667Z,1.27
2023-04-12T00:03:56.650Z,1.05
2023-04-12T00:06:32.416Z,1.05
2023-04-12T00:09:00.553Z,1.63
2023-04-12T00:11:29.361Z,1.45
2023-04-12T00:13:56.171Z,0.98
2023-04-12T00:16:22.967Z,1.02
2023-04-12T00:18:49.450Z,1.05
2023-04-12T00:21:19.405Z,1.38
2023-04-12T00:23:51.225Z,1.50
2023-04-12T00:26:21.775Z,1.20
2023-04-12T00:28:50.852Z,1.10
2023-04-12T00:31:19.968Z,0.85
2023-04-12T00:33:46.585Z,1.60
2023-04-12T00:36:13.128Z,1.08
2023-04-12T00:38:39.631Z,1.13
2023-04-12T00:41:08.750Z,1.33
2023-04-12T00:47:50.281Z,1.10
2023-04-12T00:50:16.873Z,0.70
2023-04-12T00:52:46.055Z,1.00
2023-04-12T00:55:12.605Z,1.13
2023-04-12T00:57:40.481Z,0.52
2023-04-12T01:00:12.766Z,1.02
2023-04-12T01:02:42.714Z,0.75
2023-04-12T01:05:15.150Z,0.93
2023-04-12T01:07:51.719Z,1.30
2023-04-12T01:11:02.015Z,2.13
2023-04-12T01:13:54.109Z,0.70
2023-04-12T01:16:44.481Z,0.90
2023-04-12T01:19:34.084Z,1.00
2023-04-12T01:22:25.490Z,1.73
2023-04-12T01:25:10.562Z,1.13
2023-04-12T01:27:46.551Z,0.75
2023-04-12T01:30:17.003Z,0.80
2023-04-12T01:32:51.316Z,0.60
2023-04-12T01:35:26.276Z,1.02
2023-04-12T01:37:56.074Z,1.42
2023-04-12T01:40:27.416Z,1.55
2023-04-12T01:43:13.776Z,0.73
2023-04-12T01:45:43.695Z,0.82
2023-04-12T01:48:12.136Z,0.82
2023-04-12T01:51:03.965Z,0.73
2023-04-12T01:53:48.194Z,0.57
2023-04-12T01:56:20.312Z,1.02
2023-04-12T01:58:48.650Z,0.90
2023-04-12T02:03:43.297Z,1.30
2023-04-12T02:06:10.516Z,1.23
2023-04-12T02:08:39.358Z,0.90
2023-04-12T02:11:12.723Z,0.88
2023-04-12T02:13:41.568Z,0.75
2023-04-12T02:16:10.620Z,0.98
2023-04-12T02:18:37.245Z,1.30
2023-04-12T02:21:06.569Z,1.35
2023-04-12T02:23:33.045Z,0.80
2023-04-12T02:25:59.500Z,0.80
2023-04-12T02:28:28.256Z,1.20
2023-04-12T02:30:54.820Z,0.90
2023-04-12T02:33:28.141Z,1.00
2023-04-12T02:35:57.335Z,0.82
2023-04-12T02:38:24.489Z,1.10
2023-04-12T02:40:51.340Z,0.70
2023-04-12T02:43:20.129Z,1.02
2023-04-12T02:45:47.742Z,0.90
2023-04-12T02:48:16.511Z,1.10
2023-04-12T02:50:42.987Z,1.00
2023-04-12T02:53:15.448Z,0.73
2023-04-12T02:55:41.930Z,0.90
2023-04-12T02:58:08.367Z,1.00
2023-04-12T03:00:34.868Z,0.95
2023-04-12T03:03:04.147Z,1.20
2023-04-12T03:05:30.882Z,1.05
2023-04-12T03:07:59.857Z,1.45
2023-04-12T03:10:28.571Z,0.70
2023-04-12T03:12:57.368Z,1.30
2023-04-12T03:15:28.340Z,0.65
2023-04-12T03:17:57.312Z,0.65
2023-04-12T03:20:28.859Z,0.60
2023-04-12T03:22:57.924Z,0.73
2023-04-12T03:25:24.376Z,0.98
2023-04-12T03:27:51.032Z,1.00
2023-04-12T03:30:19.632Z,0.60
2023-04-12T03:32:46.170Z,1.85
2023-04-12T03:35:12.699Z,1.30
2023-04-12T03:37:41.563Z,0.50
2023-04-12T03:40:09.229Z,0.93
2023-04-12T03:42:36.505Z,1.02
2023-04-12T03:45:03.365Z,0.90
2023-04-12T03:47:34.550Z,0.80
2023-04-12T03:50:11.515Z,0.90
2023-04-12T03:52:38.881Z,0.93
2023-04-12T03:55:08.598Z,0.77
2023-04-12T03:57:35.451Z,1.00
2023-04-12T04:00:02.529Z,1.00
2023-04-12T04:02:31.918Z,0.98
2023-04-12T04:05:04.005Z,0.40
2023-04-12T04:07:33.059Z,0.80
2023-04-12T04:09:59.998Z,0.85
2023-04-12T04:12:28.955Z,1.13
2023-04-12T04:15:00.287Z,0.70
2023-04-12T04:17:26.791Z,0.80
2023-04-12T04:19:53.598Z,0.82
2023-04-12T04:22:22.921Z,0.85
2023-04-12T04:24:52.052Z,0.70
2023-04-12T04:27:20.465Z,1.08
2023-04-12T04:29:46.994Z,0.70
2023-04-12T04:32:13.542Z,0.90
2023-04-12T04:34:40.249Z,0.77
2023-04-12T04:37:10.025Z,0.90
2023-04-12T04:39:36.577Z,0.70
2023-04-12T04:42:06.671Z,0.75
2023-04-12T04:44:36.182Z,0.70
2023-04-12T04:47:03.571Z,0.90
2023-04-12T04:49:33.784Z,0.60
2023-04-12T04:52:00.327Z,1.13
2023-04-12T04:54:27.088Z,1.00
2023-04-12T04:56:57.290Z,1.10
2023-04-12T04:59:26.049Z,0.50
2023-04-12T05:01:54.900Z,0.68
2023-04-12T05:04:21.366Z,1.02
2023-04-12T05:06:47.858Z,0.70
2023-04-12T05:09:14.299Z,0.70
2023-04-12T05:11:40.852Z,0.43
2023-04-12T05:14:12.699Z,0.90
2023-04-12T05:16:39.459Z,0.93
2023-04-12T05:19:06.046Z,0.65
2023-04-12T05:21:33.788Z,0.70
2023-04-12T05:24:03.296Z,0.90
2023-04-12T05:26:29.784Z,0.80
2023-04-12T05:28:56.531Z,1.00
2023-04-12T05:31:24.694Z,0.70
2023-04-12T05:33:54.507Z,0.80
2023-04-12T05:36:21.196Z,0.60
2023-04-12T05:38:47.655Z,0.50
2023-04-12T05:41:14.124Z,0.85
2023-04-12T05:43:40.569Z,0.70
2023-04-12T05:46:08.016Z,0.80
2023-04-12T05:48:39.873Z,0.77
2023-04-12T05:51:06.372Z,0.50
2023-04-12T05:53:33.036Z,0.80
2023-04-12T05:55:59.562Z,0.88
2023-04-12T05:58:26.248Z,0.90
2023-04-12T06:00:54.323Z,0.55
2023-04-12T06:03:23.920Z,0.75
2023-04-12T06:05:53.182Z,1.30
2023-04-12T06:08:24.787Z,1.10
2023-04-12T06:10:51.296Z,1.02
2023-04-12T06:13:17.837Z,0.73
2023-04-12T06:15:46.801Z,1.00
2023-04-12T06:18:13.436Z,1.10
2023-04-12T06:20:40.735Z,1.05
2023-04-12T06:23:10.188Z,1.10
2023-04-12T06:25:37.412Z,1.08
2023-04-12T06:28:06.294Z,1.15
2023-04-12T06:30:32.784Z,0.85
2023-04-12T06:32:59.545Z,1.08
2023-04-12T06:35:28.460Z,1.25
2023-04-12T06:37:57.368Z,1.10
2023-04-12T06:40:24.170Z,0.90
2023-04-12T06:42:50.755Z,1.20
2023-04-12T06:45:17.214Z,0.77
2023-04-12T06:47:47.388Z,0.93
2023-04-12T06:50:16.257Z,1.27
2023-04-12T06:52:45.259Z,1.15
2023-04-12T06:55:13.876Z,1.15
2023-04-12T06:57:46.161Z,1.17
2023-04-12T07:00:15.599Z,1.20
2023-04-12T07:02:44.570Z,1.20
2023-04-12T07:05:11.244Z,1.17
2023-04-12T07:07:40.169Z,1.30
2023-04-12T07:10:09.567Z,1.30
2023-04-12T07:12:36.133Z,1.52
2023-04-12T07:15:07.725Z,1.70
2023-04-12T07:17:34.360Z,1.40
2023-04-12T07:20:03.312Z,1.42
2023-04-12T07:22:29.949Z,1.60
2023-04-12T07:24:57.017Z,1.30
2023-04-12T07:27:25.281Z,1.38
2023-04-12T07:32:19.445Z,1.63
2023-04-12T07:34:46.028Z,1.70
2023-04-12T07:37:13.168Z,1.50
2023-04-12T07:39:41.022Z,1.90
2023-04-12T07:42:07.755Z,2.00
2023-04-12T07:44:38.493Z,1.52
2023-04-12T07:47:05.741Z,1.40
2023-04-12T07:49:35.365Z,1.88
2023-04-12T07:52:04.664Z,1.95
2023-04-12T07:54:33.727Z,1.70
2023-04-12T07:57:03.969Z,2.05
2023-04-12T07:59:33.006Z,2.10
2023-04-12T08:02:00.371Z,2.42
2023-04-12T08:04:29.559Z,2.25
2023-04-12T08:06:56.249Z,1.85
2023-04-12T08:09:25.246Z,1.77
2023-04-12T08:11:52.306Z,2.15
2023-04-12T08:14:19.231Z,2.42
2023-04-12T08:16:47.952Z,2.20
2023-04-12T08:19:18.187Z,1.80
2023-04-12T08:21:47.163Z,2.13
2023-04-12T08:24:16.098Z,2.30
2023-04-12T08:26:49.967Z,2.17
2023-04-12T08:29:21.178Z,2.40
2023-04-12T08:31:47.898Z,2.42
2023-04-12T08:34:16.911Z,2.50
2023-04-12T08:36:45.703Z,2.85
2023-04-12T08:39:14.458Z,2.22
2023-04-12T08:41:46.750Z,2.83
2023-04-12T08:44:18.723Z,2.30
2023-04-12T08:46:48.743Z,2.65
2023-04-12T08:49:16.421Z,2.78
2023-04-12T08:51:45.970Z,3.25
2023-04-12T08:54:12.488Z,2.50
2023-04-12T08:56:44.005Z,2.45
2023-04-12T08:59:13.695Z,2.92
2023-04-12T09:01:43.572Z,2.60
2023-04-12T09:04:10.402Z,2.58
2023-04-12T09:06:41.491Z,3.25
2023-04-12T09:09:08.388Z,3.17
2023-04-12T09:11:34.939Z,3.13
2023-04-12T09:14:01.816Z,2.72
2023-04-12T09:16:35.587Z,2.20
2023-04-12T09:19:06.706Z,2.65
2023-04-12T09:21:39.048Z,3.38
2023-04-12T09:24:14.789Z,2.78
2023-04-12T09:26:42.306Z,2.88
2023-04-12T09:29:24.330Z,2.80
2023-04-12T09:32:02.748Z,2.22
2023-04-12T09:34:38.809Z,2.58
2023-04-12T09:37:16.142Z,2.70
2023-04-12T09:39:43.561Z,2.72
2023-04-12T09:42:25.613Z,3.22
2023-04-12T09:45:01.838Z,3.05
2023-04-12T09:47:39.714Z,2.25
2023-04-12T09:50:08.352Z,2.92
2023-04-12T09:52:38.946Z,2.50
2023-04-12T09:55:10.294Z,2.70
2023-04-12T09:57:43.203Z,2.75
2023-04-12T10:00:14.343Z,2.75
2023-04-12T10:02:47.128Z,3.20
2023-04-12T10:05:20.834Z,2.53
2023-04-12T10:07:48.436Z,2.58
2023-04-12T10:10:18.783Z,2.75
2023-04-12T10:12:49.404Z,2.83
2023-04-12T10:15:18.802Z,2.50
2023-04-12T10:17:57.514Z,2.50
2023-04-12T10:20:28.140Z,3.05
2023-04-12T10:22:59.627Z,2.75
2023-04-12T10:25:29.947Z,2.55
2023-04-12T10:28:14.406Z,3.03
2023-04-12T10:30:49.346Z,2.30
2023-04-12T10:33:18.225Z,2.75
2023-04-12T10:35:54.675Z,2.88
2023-04-12T10:38:26.814Z,3.05
2023-04-12T10:41:16.348Z,3.00
2023-04-12T10:43:43.871Z,2.53
2023-04-12T10:46:39.876Z,2.83
2023-04-12T10:49:17.430Z,2.53
2023-04-12T10:52:05.146Z,2.55
2023-04-12T10:57:04.164Z,2.40
2023-04-12T10:59:56.772Z,3.13
2023-04-12T11:02:34.501Z,2.70
2023-04-12T11:05:14.373Z,2.83
2023-04-12T11:07:45.062Z,2.50
2023-04-12T11:10:20.097Z,2.50
2023-04-12T11:12:57.181Z,1.90
2023-04-12T11:15:34.018Z,2.80
2023-04-12T11:18:01.139Z,2.40
2023-04-12T11:20:27.853Z,2.23
2023-04-12T11:22:55.694Z,2.67
2023-04-12T11:25:22.646Z,2.63
2023-04-12T11:27:54.724Z,2.40
2023-04-12T11:30:24.875Z,2.80
2023-04-12T11:32:51.614Z,2.38
2023-04-12T11:35:20.408Z,2.35
2023-04-12T11:37:47.170Z,2.63
2023-04-12T11:40:14.675Z,2.70
2023-04-12T11:42:43.715Z,3.47
2023-04-12T11:45:17.902Z,2.53
2023-04-12T11:47:46.425Z,2.47
2023-04-12T11:50:13.255Z,2.15
2023-04-12T11:52:41.274Z,2.22
2023-04-12T11:55:12.889Z,2.28
2023-04-12T11:57:39.597Z,2.72
2023-04-12T12:00:11.915Z,2.28
2023-04-12T12:02:46.025Z,2.08
2023-04-12T12:05:19.277Z,2.63
2023-04-12T12:07:46.055Z,1.63
2023-04-12T12:10:32.555Z,1.98
2023-04-12T12:13:11.294Z,2.00
2023-04-12T12:15:38.044Z,1.80
2023-04-12T12:18:08.217Z,1.42
2023-04-12T12:20:55.815Z,1.80
2023-04-12T12:23:32.266Z,1.30
2023-04-12T12:26:18.403Z,1.15
2023-04-12T12:28:55.597Z,1.53
2023-04-12T12:31:27.415Z,1.40
2023-04-12T12:33:57.914Z,1.38
2023-04-12T12:36:38.627Z,1.40
2023-04-12T12:39:11.007Z,1.60
2023-04-12T12:41:38.934Z,2.28
2023-04-12T12:44:05.615Z,2.10
2023-04-12T12:46:50.792Z,1.30
2023-04-12T12:49:18.972Z,2.05
2023-04-12T12:51:45.600Z,1.85
2023-04-12T12:54:28.400Z,1.60
2023-04-12T12:57:04.543Z,1.30
2023-04-12T12:59:31.426Z,1.30
2023-04-12T13:02:00.532Z,0.80
2023-04-12T13:04:27.182Z,1.00
2023-04-12T13:06:58.081Z,0.98
2023-04-12T13:09:25.694Z,1.00
2023-04-12T13:11:57.200Z,1.00
2023-04-12T13:14:24.009Z,1.35
2023-04-12T13:16:50.740Z,0.82
2023-04-12T13:19:17.356Z,0.93
2023-04-12T13:21:43.853Z,1.10
2023-04-12T13:24:10.517Z,1.00
2023-04-12T13:26:37.069Z,1.63
2023-04-12T13:29:03.566Z,1.65
2023-04-12T13:31:32.828Z,2.00
2023-04-12T13:34:01.724Z,1.25
2023-04-12T13:36:28.669Z,0.95
2023-04-12T13:38:55.174Z,1.02
2023-04-12T13:41:25.182Z,0.90
2023-04-12T13:43:51.703Z,1.00
2023-04-12T13:46:18.217Z,1.10
2023-04-12T13:48:44.744Z,1.10
2023-04-12T13:51:11.291Z,0.95
2023-04-12T13:53:40.058Z,0.60
2023-04-12T13:56:07.171Z,0.70
2023-04-12T13:58:33.672Z,0.93
2023-04-12T14:01:01.032Z,0.77
2023-04-12T14:03:27.643Z,0.80
2023-04-12T14:05:54.357Z,0.70
2023-04-12T14:08:25.265Z,0.43
2023-04-12T14:10:51.717Z,0.70
2023-04-12T14:13:18.204Z,0.50
2023-04-12T14:15:44.743Z,0.70
2023-04-12T14:18:11.336Z,0.50
2023-04-12T14:20:37.835Z,0.52
2023-04-12T14:23:06.499Z,0.60
2023-04-12T14:25:39.330Z,0.50
2023-04-12T14:28:08.307Z,0.50
2023-04-12T14:30:37.522Z,0.40
2023-04-12T14:33:06.489Z,0.93
2023-04-12T14:35:35.535Z,1.00
2023-04-12T14:38:04.789Z,1.17
2023-04-12T14:40:31.420Z,0.70
2023-04-12T14:42:57.932Z,0.80
2023-04-12T14:45:25.383Z,1.13
2023-04-12T14:47:51.995Z,0.77
2023-04-12T14:50:21.672Z,1.13
2023-04-12T14:52:50.974Z,0.50
2023-04-12T14:55:17.849Z,1.00
2023-04-12T14:57:44.471Z,1.00
2023-04-12T15:00:14.497Z,0.93
2023-04-12T15:02:46.101Z,1.15
2023-04-12T15:05:12.971Z,1.05
2023-04-12T15:07:45.849Z,0.68
2023-04-12T15:10:15.712Z,0.93
2023-04-12T15:12:42.606Z,0.75
2023-04-12T15:15:11.715Z,0.50
2023-04-12T15:17:38.625Z,0.90
2023-04-12T15:20:15.739Z,0.80
2023-04-12T15:22:45.214Z,1.23
2023-04-12T15:25:11.924Z,0.70
2023-04-12T15:27:38.530Z,0.82
2023-04-12T15:30:10.873Z,0.30
2023-04-12T15:32:44.860Z,0.63
2023-04-12T15:37:45.766Z,0.50
2023-04-12T15:40:15.449Z,0.50
2023-04-12T15:42:44.265Z,0.65
2023-04-12T15:45:13.629Z,0.50
2023-04-12T15:47:40.454Z,0.80
2023-04-12T15:50:08.485Z,0.50
2023-04-12T15:55:11.577Z,0.60
2023-04-12T15:57:38.190Z,0.65
2023-04-12T16:00:21.025Z,0.70
2023-04-12T16:02:56.247Z,1.00
2023-04-12T16:05:27.245Z,0.47
2023-04-12T16:07:59.763Z,0.80
2023-04-12T16:10:28.686Z,0.43
2023-04-12T16:12:56.411Z,0.80
2023-04-12T16:15:23.485Z,0.70
2023-04-12T16:17:55.363Z,0.85
2023-04-12T16:20:22.646Z,0.60
2023-04-12T16:22:56.646Z,0.80
2023-04-12T16:25:25.178Z,0.50
2023-04-12T16:27:51.981Z,0.82
2023-04-12T16:30:19.273Z,0.85
2023-04-12T16:32:46.859Z,0.93
2023-04-12T16:35:15.109Z,0.88
2023-04-12T16:37:42.651Z,1.15
2023-04-12T16:40:12.281Z,0.70
2023-04-12T16:42:42.737Z,0.57
2023-04-12T16:45:14.848Z,0.68
2023-04-12T16:47:46.060Z,0.90
2023-04-12T16:50:17.188Z,0.70
2023-04-12T16:52:46.061Z,0.77
2023-04-12T16:55:12.630Z,0.77
2023-04-12T16:57:42.807Z,0.80
2023-04-12T17:00:26.317Z,0.65
2023-04-12T17:02:55.221Z,0.60
2023-04-12T17:05:26.794Z,0.60
2023-04-12T17:07:59.037Z,0.68
2023-04-12T17:10:28.790Z,0.80
2023-04-12T17:12:59.572Z,0.60
2023-04-12T17:15:32.306Z,0.50
2023-04-12T17:18:10.323Z,0.68
2023-04-12T17:23:07.055Z,0.90
2023-04-12T17:25:36.263Z,1.23
2023-04-12T17:28:08.530Z,0.80
2023-04-12T17:30:35.138Z,0.95
2023-04-12T17:33:01.921Z,1.23
2023-04-12T17:35:31.736Z,0.85
2023-04-12T17:37:58.355Z,0.70
2023-04-12T17:40:26.154Z,0.70
2023-04-12T17:42:52.630Z,0.68
2023-04-12T17:45:21.534Z,0.40
2023-04-12T17:47:48.236Z,0.90
2023-04-12T17:50:14.895Z,0.57
2023-04-12T17:52:42.389Z,1.17
2023-04-12T17:55:19.290Z,0.80
2023-04-12T17:57:46.045Z,0.68
2023-04-12T18:00:13.378Z,0.75
2023-04-12T18:02:40.871Z,1.20
2023-04-12T18:05:07.795Z,1.00
2023-04-12T18:07:37.136Z,1.15
2023-04-12T18:10:03.791Z,1.35
2023-04-12T18:12:30.308Z,2.17
2023-04-12T18:14:56.816Z,1.40
2023-04-12T18:17:25.784Z,1.13
2023-04-12T18:19:55.632Z,1.08
2023-04-12T18:22:27.232Z,1.25
2023-04-12T18:25:00.760Z,0.77
2023-04-12T18:27:27.637Z,1.10
2023-04-12T18:29:56.518Z,1.25
2023-04-12T18:32:25.662Z,1.40
2023-04-12T18:34:57.042Z,0.98
2023-04-12T18:37:24.628Z,1.40
2023-04-12T18:39:53.577Z,1.05
2023-04-12T18:42:20.154Z,1.10
2023-04-12T18:44:46.774Z,1.30
2023-04-12T18:47:13.306Z,1.52
2023-04-12T18:49:39.885Z,1.30
2023-04-12T18:52:11.928Z,1.05
2023-04-12T18:54:40.684Z,1.40
2023-04-12T18:57:07.742Z,1.23
2023-04-12T18:59:34.348Z,1.60
2023-04-12T19:02:01.241Z,1.30
2023-04-12T19:04:30.061Z,1.40
2023-04-12T19:06:57.047Z,1.20
2023-04-12T19:09:25.224Z,1.45
2023-04-12T19:11:56.538Z,1.80
2023-04-12T19:14:24.819Z,1.60
2023-04-12T19:19:18.072Z,1.60
2023-04-12T19:21:44.606Z,1.40
2023-04-12T19:24:13.348Z,2.03
2023-04-12T19:26:46.743Z,1.88
2023-04-12T19:29:19.068Z,1.50
2023-04-12T19:31:47.659Z,1.10
2023-04-12T19:34:17.824Z,2.13
2023-04-12T19:36:44.895Z,1.40
2023-04-12T19:39:11.630Z,1.60
2023-04-12T19:41:38.192Z,1.80
2023-04-12T19:44:04.696Z,1.98
2023-04-12T19:46:32.697Z,1.58
2023-04-12T19:48:59.548Z,1.65
2023-04-12T19:51:28.498Z,1.75
2023-04-12T19:53:55.143Z,2.13
2023-04-12T19:56:25.346Z,1.85
2023-04-12T19:58:54.630Z,1.70
2023-04-12T20:01:21.272Z,1.90
2023-04-12T20:03:50.358Z,2.22
2023-04-12T20:06:17.142Z,1.70
2023-04-12T20:08:43.626Z,2.05
2023-04-12T20:11:10.173Z,2.08
2023-04-12T20:13:37.171Z,2.60
2023-04-12T20:16:04.569Z,1.77
2023-04-12T20:18:31.227Z,1.43
2023-04-12T20:20:59.990Z,1.50
2023-04-12T20:23:32.009Z,1.45
2023-04-12T20:26:01.011Z,2.47
2023-04-12T20:28:30.606Z,1.88
2023-04-12T20:30:57.799Z,1.17
2023-04-12T20:33:29.365Z,1.80
2023-04-12T20:35:55.848Z,1.58
2023-04-12T20:38:22.737Z,1.77
2023-04-12T20:40:49.229Z,1.50
2023-04-12T20:43:16.685Z,1.67
2023-04-12T20:45:43.213Z,1.57
2023-04-12T20:48:09.805Z,1.55
2023-04-12T20:50:36.463Z,1.13
2023-04-12T20:53:02.969Z,1.40
2023-04-12T20:55:34.614Z,2.10
2023-04-12T20:58:08.193Z,1.45
2023-04-12T21:00:39.407Z,1.55
2023-04-12T21:03:06.183Z,1.60
2023-04-12T21:05:35.681Z,1.25
2023-04-12T21:08:06.730Z,1.52
2023-04-12T21:10:33.583Z,1.05
2023-04-12T21:13:04.865Z,1.55
2023-04-12T21:15:35.479Z,1.40
2023-04-12T21:18:02.310Z,1.42
2023-04-12T21:20:30.445Z,1.20
2023-04-12T21:23:03.759Z,0.80
2023-04-12T21:25:34.351Z,1.27
2023-04-12T21:28:01.081Z,1.05
2023-04-12T21:30:27.556Z,0.98
2023-04-12T21:33:02.245Z,0.80
2023-04-12T21:35:31.737Z,0.82
2023-04-12T21:37:58.205Z,1.10
2023-04-12T21:40:26.353Z,0.93
2023-04-12T21:42:57.161Z,0.90
2023-04-12T21:45:27.397Z,0.73
2023-04-12T21:47:55.360Z,0.85
2023-04-12T21:50:21.919Z,0.80
2023-04-12T21:52:50.823Z,0.88
2023-04-12T21:55:19.662Z,0.95
2023-04-12T21:57:48.566Z,2.28
2023-04-12T22:00:18.269Z,0.73
2023-04-12T22:02:47.392Z,0.55
2023-04-12T22:05:14.430Z,0.70
2023-04-12T22:07:43.707Z,0.40
2023-04-12T22:10:13.202Z,0.65
2023-04-12T22:12:39.968Z,0.80
2023-04-12T22:15:06.939Z,0.50
2023-04-12T22:17:36.142Z,0.43
2023-04-12T22:20:08.558Z,0.55
2023-04-12T22:22:37.530Z,0.60
2023-04-12T22:25:08.398Z,0.55
2023-04-12T22:27:37.241Z,0.40
2023-04-12T22:30:06.809Z,0.22
2023-04-12T22:32:33.744Z,0.32
2023-04-12T22:35:08.315Z,0.55
2023-04-12T22:37:36.439Z,0.32
2023-04-12T22:40:06.584Z,0.60
2023-04-12T22:42:33.183Z,0.73
2023-04-12T22:45:04.698Z,0.47
2023-04-12T22:47:34.683Z,0.50
2023-04-12T22:50:08.288Z,0.73
2023-04-12T22:52:38.517Z,0.40
2023-04-12T22:55:09.735Z,0.68
2023-04-12T22:57:36.222Z,0.50
2023-04-12T23:00:06.284Z,0.30
2023-04-12T23:02:33.908Z,0.88
2023-04-12T23:05:02.469Z,0.50
2023-04-12T23:07:31.604Z,0.50
2023-04-12T23:10:02.020Z,0.70
2023-04-12T23:12:30.882Z,0.38
2023-04-12T23:14:59.721Z,0.40
2023-04-12T23:17:26.777Z,0.50
2023-04-12T23:19:56.252Z,0.40
2023-04-12T23:22:48.654Z,0.45
2023-04-12T23:25:24.740Z,0.60
2023-04-12T23:27:54.975Z,0.52
2023-04-12T23:30:22.924Z,0.80
2023-04-12T23:32:50.135Z,0.35
2023-04-12T23:35:16.706Z,0.55
2023-04-12T23:37:43.404Z,0.50
2023-04-12T23:40:14.390Z,0.35
2023-04-12T23:42:43.744Z,0.70
2023-04-12T23:45:11.936Z,0.55
2023-04-12T23:47:38.473Z,0.30
2023-04-12T23:50:09.149Z,0.60
2023-04-12T23:52:35.855Z,0.60
2023-04-12T23:55:05.053Z,0.57
2023-04-12T23:57:31.646Z,0.30
